createdAt,value
2022-08-31T00:00:29.820Z,22.90
2022-08-31T00:03:15.633Z,22.90
2022-08-31T00:05:45.263Z,22.80
2022-08-31T00:08:13.393Z,22.80
2022-08-31T00:10:44.930Z,22.80
2022-08-31T00:13:14.309Z,22.80
2022-08-31T00:15:43.567Z,22.80
2022-08-31T00:18:11.800Z,22.80
2022-08-31T00:20:40.463Z,22.80
2022-08-31T00:23:12.771Z,22.70
2022-08-31T00:25:42.886Z,22.80
2022-08-31T00:28:12.005Z,22.80
2022-08-31T00:30:41.248Z,22.80
2022-08-31T00:33:09.947Z,22.80
2022-08-31T00:35:41.492Z,22.80
2022-08-31T00:38:12.425Z,22.80
2022-08-31T00:40:44.573Z,22.80
2022-08-31T00:43:14.013Z,22.80
2022-08-31T00:45:42.162Z,22.80
2022-08-31T00:48:10.284Z,22.80
2022-08-31T00:50:38.382Z,22.80
2022-08-31T00:53:06.577Z,22.70
2022-08-31T00:55:37.844Z,22.70
2022-08-31T00:58:13.301Z,22.80
2022-08-31T01:00:43.077Z,22.80
2022-08-31T01:03:11.954Z,22.80
2022-08-31T01:05:41.300Z,22.80
2022-08-31T01:08:09.876Z,22.80
2022-08-31T01:10:44.816Z,22.80
2022-08-31T01:13:14.928Z,22.80
2022-08-31T01:15:48.972Z,22.80
2022-08-31T01:18:24.358Z,22.80
2022-08-31T01:21:01.268Z,22.80
2022-08-31T01:23:35.048Z,22.80
2022-08-31T01:26:04.817Z,22.70
2022-08-31T01:28:33.064Z,22.70
2022-08-31T01:31:08.328Z,22.70
2022-08-31T01:33:40.006Z,22.70
2022-08-31T01:36:13.140Z,22.70
2022-08-31T01:38:46.697Z,22.70
2022-08-31T01:41:21.010Z,22.70
2022-08-31T01:43:49.324Z,22.70
2022-08-31T01:46:17.531Z,22.70
2022-08-31T01:48:47.368Z,22.70
2022-08-31T01:51:17.858Z,22.70
2022-08-31T01:53:49.071Z,22.70
2022-08-31T01:56:20.107Z,22.70
2022-08-31T01:58:48.279Z,22.70
2022-08-31T02:01:39.383Z,22.70
2022-08-31T02:04:10.109Z,22.70
2022-08-31T02:06:38.998Z,22.70
2022-08-31T02:09:09.070Z,22.60
2022-08-31T02:11:38.017Z,22.60
2022-08-31T02:14:07.280Z,22.60
2022-08-31T02:16:35.820Z,22.70
2022-08-31T02:19:04.805Z,22.70
2022-08-31T02:21:36.861Z,22.70
2022-08-31T02:24:06.703Z,22.70
2022-08-31T02:26:36.228Z,22.70
2022-08-31T02:29:07.953Z,22.60
2022-08-31T02:31:37.306Z,22.60
2022-08-31T02:34:06.253Z,22.60
2022-08-31T02:36:35.820Z,22.60
2022-08-31T02:39:05.998Z,22.60
2022-08-31T02:41:36.404Z,22.60
2022-08-31T02:44:05.070Z,22.60
2022-08-31T02:46:33.657Z,22.60
2022-08-31T02:49:21.616Z,22.60
2022-08-31T02:51:50.315Z,22.60
2022-08-31T02:54:18.864Z,22.60
2022-08-31T02:56:49.291Z,22.50
2022-08-31T02:59:20.678Z,22.50
2022-08-31T03:01:49.930Z,22.60
2022-08-31T03:04:18.544Z,22.60
2022-08-31T03:06:47.765Z,22.60
2022-08-31T03:09:16.705Z,22.50
2022-08-31T03:11:45.226Z,22.50
2022-08-31T03:14:14.880Z,22.50
2022-08-31T03:16:43.488Z,22.50
2022-08-31T03:19:11.654Z,22.50
2022-08-31T03:21:39.779Z,22.40
2022-08-31T03:24:08.763Z,22.40
2022-08-31T03:26:36.879Z,22.50
2022-08-31T03:29:05.293Z,22.50
2022-08-31T03:31:53.410Z,22.50
2022-08-31T03:34:21.718Z,22.40
2022-08-31T03:36:49.815Z,22.40
2022-08-31T03:39:17.895Z,22.40
2022-08-31T03:41:46.109Z,22.40
2022-08-31T03:44:14.574Z,22.40
2022-08-31T03:46:46.714Z,22.40
2022-08-31T03:49:16.233Z,22.40
2022-08-31T03:51:56.007Z,22.40
2022-08-31T03:54:25.514Z,22.40
2022-08-31T03:56:53.609Z,22.40
2022-08-31T03:59:22.062Z,22.30
2022-08-31T04:02:08.742Z,22.40
2022-08-31T04:05:14.104Z,22.30
2022-08-31T04:08:01.076Z,22.40
2022-08-31T04:10:49.441Z,22.40
2022-08-31T04:13:32.696Z,22.40
2022-08-31T04:16:22.199Z,22.40
2022-08-31T04:18:50.551Z,22.40
2022-08-31T04:21:22.882Z,22.30
2022-08-31T04:23:52.812Z,22.20
2022-08-31T04:26:23.529Z,22.20
2022-08-31T04:28:52.319Z,22.30
2022-08-31T04:31:22.156Z,22.20
2022-08-31T04:33:51.431Z,22.30
2022-08-31T04:36:23.560Z,22.20
2022-08-31T04:38:55.816Z,22.30
2022-08-31T04:41:27.321Z,22.30
2022-08-31T04:43:58.436Z,22.30
2022-08-31T04:46:28.743Z,22.20
2022-08-31T04:48:57.237Z,22.20
2022-08-31T04:51:28.669Z,22.30
2022-08-31T04:53:57.133Z,22.30
2022-08-31T04:56:27.460Z,22.30
2022-08-31T04:58:57.864Z,22.20
2022-08-31T05:01:42.583Z,22.20
2022-08-31T05:04:38.768Z,22.30
2022-08-31T05:07:08.300Z,22.20
2022-08-31T05:09:37.419Z,22.20
2022-08-31T05:12:05.919Z,22.20
2022-08-31T05:14:35.232Z,22.20
2022-08-31T05:17:14.757Z,22.20
2022-08-31T05:19:43.168Z,22.20
2022-08-31T05:22:15.082Z,22.10
2022-08-31T05:24:45.375Z,22.20
2022-08-31T05:27:14.097Z,22.20
2022-08-31T05:29:42.807Z,22.20
2022-08-31T05:32:34.023Z,22.20
2022-08-31T05:35:03.556Z,22.20
2022-08-31T05:37:32.982Z,22.20
2022-08-31T05:40:01.921Z,22.20
2022-08-31T05:42:30.439Z,22.20
2022-08-31T05:44:58.906Z,22.10
2022-08-31T05:47:27.102Z,22.10
2022-08-31T05:49:55.303Z,22.10
2022-08-31T05:52:25.316Z,22.10
2022-08-31T05:54:56.817Z,22.10
2022-08-31T05:57:26.829Z,22.20
2022-08-31T05:59:58.708Z,22.10
2022-08-31T06:02:29.406Z,22.20
2022-08-31T06:04:58.706Z,22.10
2022-08-31T06:07:27.269Z,22.10
2022-08-31T06:10:01.346Z,22.10
2022-08-31T06:12:32.225Z,22.00
2022-08-31T06:15:00.459Z,22.00
2022-08-31T06:17:29.863Z,22.00
2022-08-31T06:19:58.108Z,22.00
2022-08-31T06:22:26.754Z,22.00
2022-08-31T06:24:57.214Z,22.00
2022-08-31T06:27:27.481Z,22.00
2022-08-31T06:29:57.946Z,22.00
2022-08-31T06:32:26.342Z,22.00
2022-08-31T06:35:03.972Z,22.00
2022-08-31T06:37:50.535Z,22.00
2022-08-31T06:40:37.406Z,22.00
2022-08-31T06:43:27.211Z,22.00
2022-08-31T06:46:01.186Z,22.00
2022-08-31T06:48:56.028Z,22.00
2022-08-31T06:51:25.090Z,22.00
2022-08-31T06:53:54.230Z,22.00
2022-08-31T06:56:41.356Z,22.10
2022-08-31T06:59:49.195Z,22.10
2022-08-31T07:02:32.432Z,22.10
2022-08-31T07:05:00.806Z,22.10
2022-08-31T07:07:29.012Z,22.10
2022-08-31T07:09:57.381Z,22.10
2022-08-31T07:12:25.852Z,22.00
2022-08-31T07:14:55.572Z,22.10
2022-08-31T07:17:27.335Z,22.10
2022-08-31T07:19:55.553Z,22.10
2022-08-31T07:22:23.861Z,22.10
2022-08-31T07:24:57.648Z,22.10
2022-08-31T07:27:25.859Z,22.10
2022-08-31T07:30:01.055Z,22.10
2022-08-31T07:32:34.181Z,22.10
2022-08-31T07:35:02.935Z,22.20
2022-08-31T07:38:01.681Z,22.10
2022-08-31T07:40:49.788Z,22.10
2022-08-31T07:43:18.482Z,22.20
2022-08-31T07:45:48.734Z,22.20
2022-08-31T07:48:22.750Z,22.10
2022-08-31T07:51:13.378Z,22.10
2022-08-31T07:53:50.722Z,22.10
2022-08-31T07:56:26.923Z,22.10
2022-08-31T07:59:11.404Z,22.20
2022-08-31T08:01:41.888Z,22.10
2022-08-31T08:04:13.181Z,22.20
2022-08-31T08:07:05.903Z,22.20
2022-08-31T08:10:00.353Z,22.20
2022-08-31T08:12:51.195Z,22.20
2022-08-31T08:15:40.224Z,22.20
2022-08-31T08:18:15.896Z,22.20
2022-08-31T08:20:49.584Z,22.10
2022-08-31T08:23:28.023Z,22.10
2022-08-31T08:26:35.286Z,22.20
2022-08-31T08:29:24.345Z,22.10
2022-08-31T08:31:54.313Z,22.10
2022-08-31T08:34:32.704Z,22.10
2022-08-31T08:37:03.142Z,22.10
2022-08-31T08:39:31.259Z,22.10
2022-08-31T08:42:15.291Z,22.10
2022-08-31T08:44:44.898Z,22.10
2022-08-31T08:47:18.201Z,22.10
2022-08-31T08:49:55.994Z,22.10
2022-08-31T08:52:29.634Z,22.10
2022-08-31T08:55:03.412Z,22.10
2022-08-31T08:57:34.559Z,22.10
2022-08-31T09:00:10.464Z,22.10
2022-08-31T09:02:44.176Z,22.10
2022-08-31T09:05:35.004Z,22.10
2022-08-31T09:08:37.715Z,22.10
2022-08-31T09:11:17.511Z,22.10
2022-08-31T09:13:59.809Z,22.10
2022-08-31T09:16:39.058Z,22.10
2022-08-31T09:19:11.964Z,22.20
2022-08-31T09:21:47.102Z,22.20
2022-08-31T09:24:20.073Z,22.20
2022-08-31T09:27:18.525Z,22.10
2022-08-31T09:29:48.954Z,22.20
2022-08-31T09:32:23.262Z,22.20
2022-08-31T09:35:01.112Z,22.20
2022-08-31T09:37:34.203Z,22.20
2022-08-31T09:40:15.717Z,22.20
2022-08-31T09:42:45.838Z,22.20
2022-08-31T09:45:29.984Z,22.20
2022-08-31T09:48:01.258Z,22.20
2022-08-31T09:50:36.186Z,22.30
2022-08-31T09:53:38.835Z,22.30
2022-08-31T09:56:13.937Z,22.30
2022-08-31T09:58:47.400Z,22.30
2022-08-31T10:01:23.513Z,22.30
2022-08-31T10:03:54.059Z,22.30
2022-08-31T10:06:46.645Z,22.30
2022-08-31T10:09:22.744Z,22.30
2022-08-31T10:11:54.235Z,22.40
2022-08-31T10:14:28.784Z,22.40
2022-08-31T10:17:04.163Z,22.40
2022-08-31T10:19:47.001Z,22.40
2022-08-31T10:22:25.430Z,22.40
2022-08-31T10:25:14.472Z,22.40
2022-08-31T10:27:48.557Z,22.40
2022-08-31T10:30:24.969Z,22.50
2022-08-31T10:33:00.182Z,22.50
2022-08-31T10:35:37.580Z,22.50
2022-08-31T10:38:20.161Z,22.60
2022-08-31T10:40:53.808Z,22.60
2022-08-31T10:43:24.472Z,22.70
2022-08-31T10:45:55.194Z,22.70
2022-08-31T10:48:26.613Z,22.70
2022-08-31T10:51:06.259Z,22.70
2022-08-31T10:53:44.971Z,22.70
2022-08-31T10:56:20.940Z,22.70
2022-08-31T10:59:06.523Z,22.70
2022-08-31T11:01:47.227Z,22.70
2022-08-31T11:04:48.245Z,22.70
2022-08-31T11:07:36.518Z,22.80
2022-08-31T11:10:19.981Z,22.80
2022-08-31T11:12:57.505Z,22.80
2022-08-31T11:16:00.156Z,22.80
2022-08-31T11:19:00.146Z,22.80
2022-08-31T11:22:00.702Z,22.80
2022-08-31T11:25:00.357Z,22.80
2022-08-31T11:27:34.148Z,22.90
2022-08-31T11:30:07.874Z,22.90
2022-08-31T11:32:40.692Z,22.90
2022-08-31T11:35:10.726Z,22.90
2022-08-31T11:37:56.103Z,22.90
2022-08-31T11:41:12.117Z,22.90
2022-08-31T11:43:49.010Z,22.90
2022-08-31T11:47:09.031Z,22.90
2022-08-31T11:49:45.687Z,22.90
2022-08-31T11:52:32.707Z,23.00
2022-08-31T11:55:08.943Z,23.00
2022-08-31T11:58:11.284Z,23.00
2022-08-31T12:00:46.403Z,23.00
2022-08-31T12:03:39.747Z,23.00
2022-08-31T12:06:11.803Z,23.10
2022-08-31T12:08:52.446Z,23.10
2022-08-31T12:11:33.806Z,23.10
2022-08-31T12:14:08.088Z,23.20
2022-08-31T12:16:52.088Z,23.20
2022-08-31T12:20:01.331Z,23.20
2022-08-31T12:23:30.070Z,23.30
2022-08-31T12:26:24.474Z,23.20
2022-08-31T12:29:24.699Z,23.20
2022-08-31T12:32:21.352Z,23.20
2022-08-31T12:34:52.784Z,23.20
2022-08-31T12:37:24.516Z,23.20
2022-08-31T12:40:17.705Z,23.20
2022-08-31T12:42:56.038Z,23.20
2022-08-31T12:45:53.145Z,23.10
2022-08-31T12:48:36.823Z,23.20
2022-08-31T12:51:12.538Z,23.20
2022-08-31T12:54:08.261Z,23.20
2022-08-31T12:56:45.625Z,23.20
2022-08-31T12:59:40.785Z,23.30
2022-08-31T13:02:16.651Z,23.30
2022-08-31T13:04:46.684Z,23.30
2022-08-31T13:07:19.024Z,23.40
2022-08-31T13:09:47.151Z,23.40
2022-08-31T13:12:25.021Z,23.40
2022-08-31T13:14:53.128Z,23.40
2022-08-31T13:17:22.646Z,23.40
2022-08-31T13:19:53.502Z,23.40
2022-08-31T13:22:29.499Z,23.40
2022-08-31T13:25:11.564Z,23.40
2022-08-31T13:27:48.608Z,23.40
2022-08-31T13:30:20.112Z,23.40
2022-08-31T13:32:51.152Z,23.40
2022-08-31T13:35:22.115Z,23.40
2022-08-31T13:38:04.915Z,23.40
2022-08-31T13:40:37.533Z,23.40
2022-08-31T13:43:09.721Z,23.40
2022-08-31T13:45:53.102Z,23.40
2022-08-31T13:48:29.325Z,23.40
2022-08-31T13:51:02.110Z,23.40
2022-08-31T13:53:40.384Z,23.40
2022-08-31T13:56:43.031Z,23.40
2022-08-31T13:59:22.105Z,23.40
2022-08-31T14:01:51.169Z,23.40
2022-08-31T14:04:48.512Z,23.40
2022-08-31T14:07:21.516Z,23.40
2022-08-31T14:09:52.415Z,23.40
2022-08-31T14:12:34.872Z,23.40
2022-08-31T14:15:21.793Z,23.40
2022-08-31T14:21:16.739Z,23.40
2022-08-31T14:23:38.346Z,23.40
2022-08-31T14:26:10.971Z,23.40
2022-08-31T14:28:41.538Z,23.40
2022-08-31T14:31:23.276Z,23.40
2022-08-31T14:34:23.263Z,23.40
2022-08-31T14:36:55.233Z,23.40
2022-08-31T14:39:26.721Z,23.40
2022-08-31T14:41:56.814Z,23.50
2022-08-31T14:44:27.957Z,23.50
2022-08-31T14:46:57.576Z,23.50
2022-08-31T14:49:25.908Z,23.50
2022-08-31T14:51:57.393Z,23.50
2022-08-31T14:54:28.460Z,23.50
2022-08-31T14:56:58.711Z,23.50
2022-08-31T14:59:28.442Z,23.50
2022-08-31T15:02:00.204Z,23.50
2022-08-31T15:04:28.836Z,23.50
2022-08-31T15:07:10.031Z,23.60
2022-08-31T15:09:42.285Z,23.60
2022-08-31T15:12:14.542Z,23.50
2022-08-31T15:14:45.053Z,23.60
2022-08-31T15:17:19.849Z,23.60
2022-08-31T15:19:52.974Z,23.60
2022-08-31T15:22:21.217Z,23.50
2022-08-31T15:24:50.212Z,23.50
2022-08-31T15:27:18.689Z,23.50
2022-08-31T15:29:49.688Z,23.50
2022-08-31T15:32:19.227Z,23.50
2022-08-31T15:34:53.536Z,23.50
2022-08-31T15:37:22.491Z,23.50
2022-08-31T15:39:51.361Z,23.50
2022-08-31T15:42:21.176Z,23.40
2022-08-31T15:44:55.907Z,23.40
2022-08-31T15:47:59.761Z,23.40
2022-08-31T15:50:31.863Z,23.40
2022-08-31T15:53:08.323Z,23.40
2022-08-31T15:55:38.842Z,23.50
2022-08-31T15:58:08.396Z,23.50
2022-08-31T16:00:36.664Z,23.50
2022-08-31T16:03:06.138Z,23.50
2022-08-31T16:05:38.685Z,23.50
2022-08-31T16:08:09.852Z,23.50
2022-08-31T16:10:39.015Z,23.50
2022-08-31T16:13:07.187Z,23.50
2022-08-31T16:15:35.220Z,23.50
2022-08-31T16:18:05.809Z,23.50
2022-08-31T16:20:36.363Z,23.50
2022-08-31T16:23:07.184Z,23.50
2022-08-31T16:25:41.865Z,23.40
2022-08-31T16:28:17.506Z,23.40
2022-08-31T16:30:45.892Z,23.40
2022-08-31T16:33:15.692Z,23.40
2022-08-31T16:35:45.701Z,23.40
2022-08-31T16:38:14.106Z,23.40
2022-08-31T16:40:42.731Z,23.40
2022-08-31T16:43:11.309Z,23.40
2022-08-31T16:45:39.901Z,23.40
2022-08-31T16:48:25.458Z,23.40
2022-08-31T16:50:57.412Z,23.30
2022-08-31T16:53:25.876Z,23.40
2022-08-31T16:55:54.184Z,23.30
2022-08-31T16:58:47.670Z,23.30
2022-08-31T17:01:15.228Z,23.30
2022-08-31T17:03:46.520Z,23.30
2022-08-31T17:06:16.311Z,23.30
2022-08-31T17:08:45.557Z,23.30
2022-08-31T17:11:16.695Z,23.40
2022-08-31T17:13:47.472Z,23.30
2022-08-31T17:16:22.048Z,23.30
2022-08-31T17:18:51.070Z,23.30
2022-08-31T17:21:22.734Z,23.30
2022-08-31T17:23:52.374Z,23.30
2022-08-31T17:26:21.668Z,23.20
2022-08-31T17:28:52.979Z,23.20
2022-08-31T17:31:21.478Z,23.20
2022-08-31T17:33:49.589Z,23.20
2022-08-31T17:36:20.031Z,23.20
2022-08-31T17:38:52.267Z,23.20
2022-08-31T17:41:20.407Z,23.10
2022-08-31T17:43:48.507Z,23.10
2022-08-31T17:46:16.627Z,23.10
2022-08-31T17:48:46.041Z,23.10
2022-08-31T17:51:26.972Z,23.10
2022-08-31T17:53:58.645Z,23.10
2022-08-31T17:56:32.993Z,23.10
2022-08-31T17:59:01.777Z,23.10
2022-08-31T18:01:31.260Z,23.00
2022-08-31T18:04:02.451Z,23.00
2022-08-31T18:06:31.515Z,23.00
2022-08-31T18:09:01.283Z,23.00
2022-08-31T18:11:30.088Z,22.90
2022-08-31T18:13:58.525Z,22.90
2022-08-31T18:16:26.672Z,22.90
2022-08-31T18:18:54.841Z,22.90
2022-08-31T18:21:25.024Z,22.80
2022-08-31T18:23:54.486Z,22.80
2022-08-31T18:26:26.333Z,22.80
2022-08-31T18:28:54.863Z,22.70
2022-08-31T18:31:30.720Z,22.70
2022-08-31T18:33:59.134Z,22.70
2022-08-31T18:36:29.584Z,22.70
2022-08-31T18:39:00.330Z,22.60
2022-08-31T18:41:47.932Z,22.60
2022-08-31T18:44:33.434Z,22.60
2022-08-31T18:47:03.253Z,22.50
2022-08-31T18:49:34.555Z,22.50
2022-08-31T18:52:02.987Z,22.50
2022-08-31T18:54:33.105Z,22.50
2022-08-31T18:57:02.782Z,22.50
2022-08-31T18:59:30.943Z,22.50
2022-08-31T19:01:59.210Z,22.50
2022-08-31T19:04:27.404Z,22.50
2022-08-31T19:06:55.586Z,22.50
2022-08-31T19:09:24.235Z,22.50
2022-08-31T19:11:53.113Z,22.40
2022-08-31T19:14:25.984Z,22.40
2022-08-31T19:17:03.288Z,22.40
2022-08-31T19:19:33.406Z,22.40
2022-08-31T19:22:01.678Z,22.40
2022-08-31T19:24:29.789Z,22.40
2022-08-31T19:27:00.006Z,22.40
2022-08-31T19:29:32.363Z,22.40
2022-08-31T19:32:02.728Z,22.40
2022-08-31T19:34:32.507Z,22.40
2022-08-31T19:37:01.892Z,22.40
2022-08-31T19:39:31.827Z,22.30
2022-08-31T19:42:08.831Z,22.30
2022-08-31T19:45:22.714Z,22.30
2022-08-31T19:47:32.033Z,22.30
2022-08-31T19:50:01.433Z,22.30
2022-08-31T19:52:29.953Z,22.30
2022-08-31T19:55:08.683Z,22.30
2022-08-31T19:57:37.678Z,22.40
2022-08-31T20:00:10.112Z,22.30
2022-08-31T20:02:42.145Z,22.30
2022-08-31T20:05:11.287Z,22.30
2022-08-31T20:07:41.462Z,22.30
2022-08-31T20:10:10.709Z,22.30
2022-08-31T20:12:39.499Z,22.30
2022-08-31T20:15:10.077Z,22.30
2022-08-31T20:17:41.295Z,22.30
2022-08-31T20:20:13.311Z,22.30
2022-08-31T20:22:41.520Z,22.30
2022-08-31T20:25:17.567Z,22.30
2022-08-31T20:27:47.080Z,22.30
2022-08-31T20:30:20.472Z,22.30
2022-08-31T20:32:48.594Z,22.30
2022-08-31T20:35:18.998Z,22.30
2022-08-31T20:37:47.970Z,22.30
2022-08-31T20:40:17.113Z,22.30
2022-08-31T20:42:45.412Z,22.20
2022-08-31T20:45:13.532Z,22.20
2022-08-31T20:48:00.457Z,22.30
2022-08-31T20:50:29.662Z,22.20
2022-08-31T20:52:59.160Z,22.20
2022-08-31T20:55:27.261Z,22.20
2022-08-31T20:57:55.376Z,22.20
2022-08-31T21:00:24.933Z,22.20
2022-08-31T21:02:55.382Z,22.10
2022-08-31T21:05:40.087Z,22.10
2022-08-31T21:08:08.691Z,22.10
2022-08-31T21:10:38.625Z,22.10
2022-08-31T21:13:12.524Z,22.10
2022-08-31T21:15:43.057Z,22.10
2022-08-31T21:18:15.977Z,22.10
2022-08-31T21:20:44.294Z,22.00
2022-08-31T21:23:13.458Z,22.00
2022-08-31T21:25:43.939Z,22.00
2022-08-31T21:28:14.035Z,22.00
2022-08-31T21:30:42.265Z,21.90
2022-08-31T21:33:11.783Z,21.90
2022-08-31T21:35:39.930Z,21.90
2022-08-31T21:38:12.875Z,21.90
2022-08-31T21:40:48.335Z,21.90
2022-08-31T21:43:16.658Z,21.90
2022-08-31T21:45:44.849Z,21.90
2022-08-31T21:48:14.295Z,21.80
2022-08-31T21:50:42.427Z,21.80
2022-08-31T21:53:10.653Z,21.80
2022-08-31T21:55:39.494Z,21.90
2022-08-31T21:58:07.751Z,21.90
2022-08-31T22:00:41.782Z,21.80
2022-08-31T22:03:10.355Z,21.80
2022-08-31T22:05:41.542Z,21.80
2022-08-31T22:08:09.909Z,21.70
2022-08-31T22:10:40.907Z,21.70
2022-08-31T22:13:11.372Z,21.70
2022-08-31T22:15:40.464Z,21.60
2022-08-31T22:21:00.214Z,21.60
2022-08-31T22:23:29.038Z,21.60
2022-08-31T22:25:57.409Z,21.60
2022-08-31T22:28:27.671Z,21.60
2022-08-31T22:30:56.714Z,21.50
2022-08-31T22:33:25.235Z,21.50
2022-08-31T22:35:53.481Z,21.50
2022-08-31T22:38:22.945Z,21.50
2022-08-31T22:40:51.564Z,21.50
2022-08-31T22:43:19.846Z,21.50
2022-08-31T22:45:49.099Z,21.50
2022-08-31T22:48:17.870Z,21.50
2022-08-31T22:50:46.042Z,21.50
2022-08-31T22:53:14.226Z,21.40
2022-08-31T22:55:44.103Z,21.40
2022-08-31T22:58:13.673Z,21.40
2022-08-31T23:00:42.833Z,21.30
2022-08-31T23:03:14.122Z,21.30
2022-08-31T23:05:43.789Z,21.30
2022-08-31T23:08:12.517Z,21.30
2022-08-31T23:10:41.278Z,21.30
2022-08-31T23:13:10.791Z,21.20
2022-08-31T23:15:40.085Z,21.20
2022-08-31T23:18:10.369Z,21.20
2022-08-31T23:20:41.729Z,21.20
2022-08-31T23:23:10.411Z,21.10
2022-08-31T23:25:40.662Z,21.10
2022-08-31T23:28:10.107Z,21.10
2022-08-31T23:30:43.784Z,21.10
2022-08-31T23:33:11.959Z,21.10
2022-08-31T23:35:40.635Z,21.10
2022-08-31T23:38:08.751Z,21.10
2022-08-31T23:40:36.923Z,21.10
2022-08-31T23:43:05.781Z,21.00
2022-08-31T23:45:35.273Z,21.00
2022-08-31T23:48:03.680Z,21.00
2022-08-31T23:50:31.809Z,21.00
2022-08-31T23:52:59.977Z,21.00
2022-08-31T23:55:30.188Z,21.00
2022-08-31T23:57:59.256Z,20.90
